createdAt,value
2022-09-02T00:01:29.498Z,60.64
2022-09-02T00:04:01.142Z,60.69
2022-09-02T00:06:29.197Z,61.10
2022-09-02T00:08:55.765Z,60.38
2022-09-02T00:11:25.317Z,60.62
2022-09-02T00:13:51.952Z,60.69
2022-09-02T00:16:19.647Z,60.69
2022-09-02T00:18:48.980Z,60.86
2022-09-02T00:21:16.092Z,61.29
2022-09-02T00:23:43.877Z,61.28
2022-09-02T00:26:10.932Z,62.37
2022-09-02T00:28:37.542Z,61.55
2022-09-02T00:31:06.845Z,62.05
2022-09-02T00:33:33.851Z,63.64
2022-09-02T00:36:02.507Z,61.74
2022-09-02T00:38:33.758Z,62.35
2022-09-02T00:41:02.441Z,62.19
2022-09-02T00:43:43.081Z,62.06
2022-09-02T00:46:15.861Z,62.51
2022-09-02T00:48:49.357Z,61.83
2022-09-02T00:51:16.357Z,61.83
2022-09-02T00:53:44.661Z,62.55
2022-09-02T00:56:17.021Z,63.18
2022-09-02T00:58:47.086Z,63.15
2022-09-02T01:01:14.191Z,62.58
2022-09-02T01:03:41.914Z,63.60
2022-09-02T01:06:11.484Z,63.97
2022-09-02T01:08:39.254Z,63.99
2022-09-02T01:11:07.059Z,63.72
2022-09-02T01:13:39.503Z,64.27
2022-09-02T01:16:31.851Z,63.84
2022-09-02T01:19:01.686Z,62.88
2022-09-02T01:21:28.190Z,64.28
2022-09-02T01:23:55.005Z,63.97
2022-09-02T01:26:21.542Z,63.91
2022-09-02T01:28:50.543Z,62.46
2022-09-02T01:31:17.475Z,63.54
2022-09-02T01:33:44.049Z,62.85
2022-09-02T01:36:12.415Z,62.94
2022-09-02T01:38:39.279Z,62.29
2022-09-02T01:41:05.866Z,61.79
2022-09-02T01:43:32.591Z,62.45
2022-09-02T01:45:59.750Z,62.97
2022-09-02T01:48:26.441Z,62.31
2022-09-02T01:50:59.814Z,63.07
2022-09-02T01:53:30.104Z,62.77
2022-09-02T01:55:56.929Z,63.08
2022-09-02T01:58:23.663Z,62.23
2022-09-02T02:00:55.296Z,62.28
2022-09-02T02:03:26.880Z,62.99
2022-09-02T02:05:55.393Z,62.56
2022-09-02T02:08:25.066Z,63.72
2022-09-02T02:10:53.963Z,63.97
2022-09-02T02:13:23.070Z,62.79
2022-09-02T02:15:49.688Z,63.96
2022-09-02T02:18:17.220Z,63.47
2022-09-02T02:20:44.808Z,62.63
2022-09-02T02:23:11.518Z,62.65
2022-09-02T02:25:42.508Z,63.25
2022-09-02T02:28:09.014Z,63.54
2022-09-02T02:30:35.531Z,63.53
2022-09-02T02:33:02.015Z,63.81
2022-09-02T02:35:29.051Z,63.82
2022-09-02T02:37:57.882Z,63.12
2022-09-02T02:40:28.134Z,63.51
2022-09-02T02:42:54.616Z,62.90
2022-09-02T02:45:22.338Z,64.04
2022-09-02T02:47:52.276Z,63.87
2022-09-02T02:50:21.791Z,63.82
2022-09-02T02:52:49.681Z,65.08
2022-09-02T02:55:17.197Z,65.26
2022-09-02T02:57:44.553Z,65.76
2022-09-02T03:00:14.311Z,63.85
2022-09-02T03:02:41.138Z,63.76
2022-09-02T03:05:10.940Z,62.92
2022-09-02T03:07:37.856Z,62.83
2022-09-02T03:10:08.158Z,60.02
2022-09-02T03:12:36.137Z,59.56
2022-09-02T03:15:03.105Z,60.71
2022-09-02T03:17:29.678Z,59.40
2022-09-02T03:19:57.728Z,58.27
2022-09-02T03:22:24.156Z,58.93
2022-09-02T03:24:52.832Z,59.16
2022-09-02T03:27:24.574Z,58.99
2022-09-02T03:29:53.407Z,59.35
2022-09-02T03:32:19.897Z,59.95
2022-09-02T03:34:48.558Z,59.25
2022-09-02T03:37:15.324Z,61.57
2022-09-02T03:39:41.945Z,60.98
2022-09-02T03:42:19.266Z,60.21
2022-09-02T03:44:46.503Z,60.99
2022-09-02T03:47:15.097Z,60.66
2022-09-02T03:49:41.656Z,60.10
2022-09-02T03:52:10.427Z,60.19
2022-09-02T03:54:36.876Z,60.81
2022-09-02T03:57:08.422Z,60.73
2022-09-02T03:59:35.212Z,61.48
2022-09-02T04:02:03.220Z,61.88
2022-09-02T04:04:32.911Z,61.50
2022-09-02T04:07:03.872Z,62.71
2022-09-02T04:09:30.407Z,61.87
2022-09-02T04:11:56.916Z,63.92
2022-09-02T04:14:23.452Z,64.39
2022-09-02T04:16:49.921Z,64.40
2022-09-02T04:20:13.033Z,62.57
2022-09-02T04:22:40.648Z,61.48
2022-09-02T04:25:08.200Z,60.36
2022-09-02T04:27:35.785Z,61.27
2022-09-02T04:30:02.921Z,62.26
2022-09-02T04:32:33.951Z,62.05
2022-09-02T04:35:02.473Z,62.06
2022-09-02T04:37:28.934Z,63.17
2022-09-02T04:39:55.422Z,64.26
2022-09-02T04:42:21.979Z,63.97
2022-09-02T04:44:48.416Z,64.70
2022-09-02T04:47:17.394Z,64.93
2022-09-02T04:49:44.224Z,65.97
2022-09-02T04:52:13.378Z,67.04
2022-09-02T04:54:39.770Z,66.71
2022-09-02T04:57:06.324Z,67.79
2022-09-02T04:59:36.306Z,66.98
2022-09-02T05:02:04.303Z,67.50
2022-09-02T05:04:31.670Z,67.40
2022-09-02T05:07:01.876Z,68.74
2022-09-02T05:09:34.321Z,67.96
2022-09-02T05:12:04.495Z,68.99
2022-09-02T05:14:31.436Z,69.84
2022-09-02T05:17:02.800Z,70.04
2022-09-02T05:19:33.981Z,69.88
2022-09-02T05:22:01.817Z,69.32
2022-09-02T05:24:29.513Z,68.96
2022-09-02T05:26:55.947Z,68.14
2022-09-02T05:29:23.822Z,68.65
2022-09-02T05:31:50.354Z,68.41
2022-09-02T05:34:17.494Z,68.64
2022-09-02T05:36:44.237Z,69.83
2022-09-02T05:39:13.436Z,69.56
2022-09-02T05:41:40.084Z,71.79
2022-09-02T05:44:09.359Z,73.30
2022-09-02T05:46:36.462Z,69.72
2022-09-02T05:49:07.266Z,68.97
2022-09-02T05:51:41.559Z,69.37
2022-09-02T05:54:11.738Z,68.96
2022-09-02T05:56:44.865Z,69.39
2022-09-02T05:59:11.657Z,68.18
2022-09-02T06:01:38.163Z,67.85
2022-09-02T06:04:08.220Z,68.11
2022-09-02T06:06:40.974Z,68.04
2022-09-02T06:09:09.539Z,65.42
2022-09-02T06:11:40.010Z,64.44
2022-09-02T06:14:07.946Z,64.76
2022-09-02T06:16:35.332Z,64.57
2022-09-02T06:19:04.473Z,62.28
2022-09-02T06:21:31.657Z,58.41
2022-09-02T06:24:00.443Z,59.06
2022-09-02T06:26:29.298Z,55.51
2022-09-02T06:29:04.153Z,55.48
2022-09-02T06:31:34.446Z,56.12
2022-09-02T06:34:01.654Z,54.12
2022-09-02T06:36:30.744Z,55.84
2022-09-02T06:38:59.190Z,53.62
2022-09-02T06:41:30.572Z,52.70
2022-09-02T06:44:03.985Z,53.40
2022-09-02T06:46:37.677Z,52.33
2022-09-02T06:49:09.045Z,53.69
2022-09-02T06:51:38.615Z,51.92
2022-09-02T06:54:07.826Z,52.23
2022-09-02T06:56:35.140Z,54.56
2022-09-02T06:59:02.351Z,52.56
2022-09-02T07:01:31.320Z,52.02
2022-09-02T07:04:17.084Z,51.45
2022-09-02T07:06:47.699Z,51.42
2022-09-02T07:09:17.054Z,52.75
2022-09-02T07:11:47.846Z,51.89
2022-09-02T07:14:23.103Z,51.61
2022-09-02T07:16:52.011Z,50.50
2022-09-02T07:19:22.787Z,51.31
2022-09-02T07:21:52.298Z,50.46
2022-09-02T07:24:22.486Z,50.78
2022-09-02T07:26:49.219Z,50.85
2022-09-02T07:29:16.830Z,51.11
2022-09-02T07:31:46.495Z,51.04
2022-09-02T07:34:14.525Z,51.89
2022-09-02T07:36:41.607Z,51.15
2022-09-02T07:39:10.517Z,50.68
2022-09-02T07:41:37.835Z,52.01
2022-09-02T07:44:07.453Z,50.36
2022-09-02T07:46:37.763Z,50.75
2022-09-02T07:49:09.163Z,50.24
2022-09-02T07:51:37.285Z,51.08
2022-09-02T07:54:05.804Z,50.30
2022-09-02T07:56:34.651Z,49.49
2022-09-02T07:59:01.134Z,49.02
2022-09-02T08:01:31.046Z,49.18
2022-09-02T08:04:00.346Z,48.55
2022-09-02T08:06:34.857Z,49.55
2022-09-02T08:09:04.025Z,49.33
2022-09-02T08:11:31.586Z,48.43
2022-09-02T08:13:59.428Z,48.39
2022-09-02T08:16:25.890Z,47.84
2022-09-02T08:21:19.118Z,48.86
2022-09-02T08:23:51.414Z,47.94
2022-09-02T08:26:18.916Z,49.23
2022-09-02T08:28:45.642Z,47.54
2022-09-02T08:31:12.144Z,46.37
2022-09-02T08:33:38.649Z,47.09
2022-09-02T08:36:11.765Z,46.48
2022-09-02T08:38:38.210Z,46.40
2022-09-02T08:41:28.870Z,46.20
2022-09-02T08:44:00.241Z,46.41
2022-09-02T08:46:31.191Z,46.57
2022-09-02T08:48:57.611Z,45.71
2022-09-02T08:51:37.228Z,47.31
2022-09-02T08:54:17.934Z,46.00
2022-09-02T08:56:44.428Z,47.45
2022-09-02T08:59:13.046Z,45.01
2022-09-02T09:01:51.260Z,44.35
2022-09-02T09:04:36.448Z,45.15
2022-09-02T09:07:24.506Z,44.05
2022-09-02T09:09:56.449Z,43.37
2022-09-02T09:12:47.577Z,45.42
2022-09-02T09:16:01.515Z,44.18
2022-09-02T09:19:03.878Z,44.88
2022-09-02T09:21:33.357Z,44.17
2022-09-02T09:24:10.234Z,43.40
2022-09-02T09:26:40.883Z,43.96
2022-09-02T09:29:10.672Z,43.60
2022-09-02T09:31:38.734Z,41.72
2022-09-02T09:34:08.111Z,42.16
2022-09-02T09:36:42.937Z,41.16
2022-09-02T09:39:24.849Z,41.83
2022-09-02T09:41:54.068Z,40.66
2022-09-02T09:44:43.239Z,41.90
2022-09-02T09:47:18.008Z,40.23
2022-09-02T09:49:45.943Z,39.54
2022-09-02T09:52:24.752Z,39.07
2022-09-02T09:55:06.518Z,39.89
2022-09-02T09:57:35.778Z,38.73
2022-09-02T10:00:11.613Z,39.24
2022-09-02T10:02:47.188Z,39.00
2022-09-02T10:05:23.896Z,38.32
2022-09-02T10:07:56.230Z,39.49
2022-09-02T10:10:29.313Z,36.78
2022-09-02T10:13:00.223Z,35.23
2022-09-02T10:15:59.714Z,36.49
2022-09-02T10:18:38.226Z,37.50
2022-09-02T10:21:14.994Z,35.74
2022-09-02T10:23:53.185Z,34.95
2022-09-02T10:26:38.026Z,33.45
2022-09-02T10:29:07.123Z,32.48
2022-09-02T10:31:49.415Z,30.85
2022-09-02T10:34:30.168Z,31.76
2022-09-02T10:37:05.378Z,32.16
2022-09-02T10:39:47.135Z,34.51
2022-09-02T10:42:19.824Z,32.03
2022-09-02T10:45:24.255Z,33.29
2022-09-02T10:48:14.730Z,33.35
2022-09-02T10:50:48.051Z,34.23
2022-09-02T10:53:47.186Z,32.98
2022-09-02T10:56:21.736Z,34.70
2022-09-02T10:58:48.716Z,33.23
2022-09-02T11:01:20.691Z,33.53
2022-09-02T11:04:13.420Z,33.47
2022-09-02T11:07:04.292Z,33.15
2022-09-02T11:09:38.556Z,33.14
2022-09-02T11:12:07.810Z,33.20
2022-09-02T11:14:49.131Z,33.12
2022-09-02T11:17:30.935Z,32.10
2022-09-02T11:20:38.771Z,33.27
2022-09-02T11:23:19.169Z,32.15
2022-09-02T11:26:07.558Z,32.82
2022-09-02T11:28:59.758Z,33.07
2022-09-02T11:31:42.292Z,32.93
2022-09-02T11:34:20.967Z,33.80
2022-09-02T11:36:49.100Z,32.73
2022-09-02T11:39:36.638Z,33.17
2022-09-02T11:42:37.377Z,33.47
2022-09-02T11:45:24.051Z,33.54
2022-09-02T11:48:02.885Z,31.87
2022-09-02T11:50:48.282Z,32.12
2022-09-02T11:53:24.028Z,32.41
2022-09-02T11:55:56.398Z,31.90
2022-09-02T11:58:44.299Z,32.28
2022-09-02T12:01:54.501Z,32.38
2022-09-02T12:04:58.760Z,32.88
2022-09-02T12:07:13.329Z,32.56
2022-09-02T12:09:55.881Z,32.44
2022-09-02T12:12:41.477Z,32.51
2022-09-02T12:15:18.702Z,32.93
2022-09-02T12:17:49.753Z,32.09
2022-09-02T12:20:38.772Z,32.10
2022-09-02T12:23:10.053Z,31.73
2022-09-02T12:25:38.567Z,31.14
2022-09-02T12:28:19.098Z,31.06
2022-09-02T12:30:56.484Z,31.18
2022-09-02T12:33:32.978Z,30.89
2022-09-02T12:36:02.797Z,31.27
2022-09-02T12:38:42.881Z,31.37
2022-09-02T12:41:20.348Z,31.99
2022-09-02T12:44:19.009Z,30.84
2022-09-02T12:46:59.888Z,30.81
2022-09-02T12:49:35.283Z,31.12
2022-09-02T12:52:09.787Z,30.23
2022-09-02T12:54:36.188Z,30.56
2022-09-02T12:57:04.253Z,30.61
2022-09-02T12:59:37.707Z,29.98
2022-09-02T13:02:42.379Z,30.55
2022-09-02T13:05:51.081Z,30.81
2022-09-02T13:08:29.543Z,29.88
2022-09-02T13:11:14.809Z,29.95
2022-09-02T13:14:15.279Z,31.94
2022-09-02T13:16:44.083Z,30.21
2022-09-02T13:19:29.226Z,29.46
2022-09-02T13:22:24.046Z,30.92
2022-09-02T13:25:05.757Z,29.56
2022-09-02T13:27:56.747Z,30.92
2022-09-02T13:30:54.619Z,29.84
2022-09-02T13:33:23.774Z,29.83
2022-09-02T13:35:59.095Z,29.38
2022-09-02T13:38:28.499Z,30.27
2022-09-02T13:40:55.519Z,29.78
2022-09-02T13:43:26.176Z,29.55
2022-09-02T13:45:59.435Z,29.21
2022-09-02T13:48:33.016Z,29.61
2022-09-02T13:51:22.609Z,30.59
2022-09-02T13:54:21.702Z,29.04
2022-09-02T13:56:37.620Z,29.71
2022-09-02T13:59:04.215Z,29.35
2022-09-02T14:01:34.258Z,29.08
2022-09-02T14:06:45.546Z,28.97
2022-09-02T14:09:21.155Z,29.04
2022-09-02T14:11:49.092Z,29.11
2022-09-02T14:14:17.882Z,29.92
2022-09-02T14:16:44.617Z,29.76
2022-09-02T14:19:14.559Z,29.66
2022-09-02T14:21:50.079Z,30.40
2022-09-02T14:24:21.211Z,30.65
2022-09-02T14:26:54.290Z,30.10
2022-09-02T14:29:21.589Z,29.58
2022-09-02T14:32:23.167Z,30.16
2022-09-02T14:35:08.994Z,30.31
2022-09-02T14:37:51.584Z,29.86
2022-09-02T14:40:30.809Z,29.35
2022-09-02T14:42:59.646Z,29.50
2022-09-02T14:45:33.865Z,29.62
2022-09-02T14:48:21.789Z,29.68
2022-09-02T14:50:48.846Z,29.72
2022-09-02T14:53:22.684Z,29.65
2022-09-02T14:55:54.569Z,28.98
2022-09-02T14:58:24.135Z,29.79
2022-09-02T15:01:01.434Z,30.24
2022-09-02T15:03:33.135Z,29.88
2022-09-02T15:05:59.524Z,30.59
2022-09-02T15:08:26.056Z,29.74
2022-09-02T15:10:56.667Z,29.56
2022-09-02T15:13:32.469Z,29.74
2022-09-02T15:15:59.540Z,29.82
2022-09-02T15:18:26.441Z,29.67
2022-09-02T15:20:52.946Z,29.65
2022-09-02T15:23:19.738Z,30.32
2022-09-02T15:25:46.884Z,29.61
2022-09-02T15:28:13.620Z,30.05
2022-09-02T15:30:42.707Z,30.24
2022-09-02T15:33:16.612Z,30.35
2022-09-02T15:35:44.540Z,30.83
2022-09-02T15:38:11.036Z,30.28
2022-09-02T15:40:37.526Z,30.28
2022-09-02T15:43:03.957Z,29.67
2022-09-02T15:45:30.750Z,31.18
2022-09-02T15:47:58.892Z,29.95
2022-09-02T15:50:26.248Z,30.11
2022-09-02T15:52:55.789Z,30.54
2022-09-02T15:55:29.161Z,30.53
2022-09-02T15:57:59.416Z,30.24
2022-09-02T16:00:27.663Z,30.32
2022-09-02T16:02:56.790Z,29.56
2022-09-02T16:05:24.160Z,30.56
2022-09-02T16:07:52.062Z,30.09
2022-09-02T16:10:18.457Z,30.37
2022-09-02T16:12:48.363Z,29.75
2022-09-02T16:15:15.055Z,30.39
2022-09-02T16:17:42.041Z,29.87
2022-09-02T16:20:11.394Z,30.41
2022-09-02T16:22:40.787Z,30.30
2022-09-02T16:25:07.718Z,30.29
2022-09-02T16:27:52.574Z,30.32
2022-09-02T16:30:19.511Z,30.09
2022-09-02T16:32:47.604Z,30.79
2022-09-02T16:35:14.088Z,30.15
2022-09-02T16:37:40.602Z,30.48
2022-09-02T16:40:07.898Z,30.93
2022-09-02T16:42:38.151Z,30.88
2022-09-02T16:45:05.516Z,30.83
2022-09-02T16:47:32.324Z,30.76
2022-09-02T16:49:58.833Z,31.17
2022-09-02T16:52:25.237Z,31.55
2022-09-02T16:54:51.706Z,31.63
2022-09-02T16:57:20.632Z,31.17
2022-09-02T16:59:47.138Z,31.33
2022-09-02T17:02:15.882Z,32.51
2022-09-02T17:04:42.394Z,32.25
2022-09-02T17:07:09.490Z,31.55
2022-09-02T17:09:35.992Z,31.72
2022-09-02T17:12:02.717Z,32.14
2022-09-02T17:14:31.796Z,32.06
2022-09-02T17:16:58.320Z,32.57
2022-09-02T17:19:32.124Z,32.17
2022-09-02T17:21:58.804Z,32.68
2022-09-02T17:24:31.009Z,32.83
2022-09-02T17:26:57.635Z,33.01
2022-09-02T17:29:47.937Z,32.44
2022-09-02T17:32:13.547Z,32.89
2022-09-02T17:34:39.996Z,32.77
2022-09-02T17:37:06.407Z,33.36
2022-09-02T17:39:34.343Z,33.84
2022-09-02T17:42:02.140Z,33.47
2022-09-02T17:44:37.627Z,33.58
2022-09-02T17:47:06.259Z,34.19
2022-09-02T17:49:39.075Z,33.95
2022-09-02T17:52:07.569Z,33.30
2022-09-02T17:54:39.214Z,33.80
2022-09-02T17:57:10.604Z,34.42
2022-09-02T17:59:43.560Z,34.55
2022-09-02T18:02:46.551Z,35.17
2022-09-02T18:05:28.889Z,34.76
2022-09-02T18:08:40.571Z,34.87
2022-09-02T18:11:07.843Z,35.26
2022-09-02T18:13:40.948Z,34.74
2022-09-02T18:16:25.893Z,34.98
2022-09-02T18:19:13.708Z,35.42
2022-09-02T18:22:15.334Z,35.60
2022-09-02T18:25:14.962Z,35.27
2022-09-02T18:28:09.597Z,35.39
2022-09-02T18:30:49.252Z,36.78
2022-09-02T18:33:34.543Z,36.06
2022-09-02T18:36:34.316Z,36.10
2022-09-02T18:39:07.243Z,36.32
2022-09-02T18:41:33.655Z,37.01
2022-09-02T18:44:15.022Z,35.99
2022-09-02T18:46:59.032Z,36.42
2022-09-02T18:49:31.081Z,36.17
2022-09-02T18:52:00.574Z,36.23
2022-09-02T18:54:31.028Z,35.97
2022-09-02T18:57:08.027Z,37.76
2022-09-02T18:59:42.023Z,38.51
2022-09-02T19:02:49.036Z,39.36
2022-09-02T19:08:04.019Z,38.51
2022-09-02T19:10:30.513Z,37.69
2022-09-02T19:13:01.836Z,38.93
2022-09-02T19:15:28.258Z,37.69
2022-09-02T19:17:54.858Z,38.51
2022-09-02T19:20:22.061Z,39.56
2022-09-02T19:22:52.450Z,39.69
2022-09-02T19:25:28.954Z,38.32
2022-09-02T19:27:57.292Z,38.50
2022-09-02T19:30:24.572Z,39.40
2022-09-02T19:32:58.759Z,38.83
2022-09-02T19:35:32.523Z,38.34
2022-09-02T19:37:59.691Z,38.43
2022-09-02T19:40:33.011Z,38.53
2022-09-02T19:43:05.599Z,37.94
2022-09-02T19:45:36.105Z,38.30
2022-09-02T19:48:07.879Z,37.99
2022-09-02T19:50:48.371Z,38.68
2022-09-02T19:53:25.696Z,38.51
2022-09-02T19:55:54.793Z,38.29
2022-09-02T19:58:21.355Z,38.76
2022-09-02T20:00:53.137Z,38.73
2022-09-02T20:03:21.076Z,38.98
2022-09-02T20:05:54.628Z,38.68
2022-09-02T20:08:24.359Z,38.96
2022-09-02T20:10:58.369Z,38.71
2022-09-02T20:13:26.390Z,38.38
2022-09-02T20:15:54.664Z,38.51
2022-09-02T20:18:26.611Z,39.27
2022-09-02T20:20:54.840Z,38.66
2022-09-02T20:23:26.353Z,39.44
2022-09-02T20:26:02.613Z,38.86
2022-09-02T20:28:47.747Z,38.97
2022-09-02T20:31:43.426Z,39.36
2022-09-02T20:34:36.906Z,39.49
2022-09-02T20:37:09.009Z,40.14
2022-09-02T20:39:55.617Z,39.72
2022-09-02T20:42:55.353Z,39.79
2022-09-02T20:45:35.230Z,39.71
2022-09-02T20:48:43.949Z,40.07
2022-09-02T20:51:38.195Z,40.38
2022-09-02T20:54:31.612Z,40.38
2022-09-02T20:57:03.957Z,40.04
2022-09-02T20:59:49.676Z,40.22
2022-09-02T21:02:20.403Z,40.72
2022-09-02T21:05:00.642Z,40.44
2022-09-02T21:07:34.306Z,40.89
2022-09-02T21:10:12.589Z,40.36
2022-09-02T21:12:45.967Z,40.44
2022-09-02T21:15:24.363Z,40.22
2022-09-02T21:17:59.024Z,39.94
2022-09-02T21:21:06.932Z,40.00
2022-09-02T21:23:38.661Z,40.36
2022-09-02T21:26:10.768Z,40.30
2022-09-02T21:28:49.971Z,39.93
2022-09-02T21:31:28.584Z,40.37
2022-09-02T21:33:59.694Z,40.20
2022-09-02T21:36:30.406Z,40.21
2022-09-02T21:38:58.943Z,40.00
2022-09-02T21:41:35.925Z,39.92
2022-09-02T21:44:14.490Z,40.03
2022-09-02T21:46:58.052Z,40.02
2022-09-02T21:49:51.808Z,39.94
2022-09-02T21:52:34.420Z,40.40
2022-09-02T21:55:03.803Z,40.36
2022-09-02T21:57:48.888Z,41.28
2022-09-02T22:00:16.919Z,40.36
2022-09-02T22:02:59.974Z,41.36
2022-09-02T22:05:29.350Z,40.64
2022-09-02T22:08:11.905Z,40.80
2022-09-02T22:11:08.379Z,40.65
2022-09-02T22:13:40.176Z,40.58
2022-09-02T22:16:13.333Z,41.74
2022-09-02T22:18:48.955Z,40.63
2022-09-02T22:21:19.638Z,40.77
2022-09-02T22:23:52.854Z,40.95
2022-09-02T22:26:38.528Z,40.66
2022-09-02T22:29:13.204Z,41.33
2022-09-02T22:31:45.109Z,41.13
2022-09-02T22:34:16.093Z,41.57
2022-09-02T22:37:02.595Z,40.99
2022-09-02T22:39:50.441Z,41.75
2022-09-02T22:42:27.167Z,40.99
2022-09-02T22:45:18.311Z,41.18
2022-09-02T22:48:10.128Z,41.09
2022-09-02T22:51:05.416Z,41.74
2022-09-02T22:53:31.991Z,41.80
2022-09-02T22:56:02.847Z,42.09
2022-09-02T22:58:38.710Z,41.90
2022-09-02T23:01:20.314Z,42.30
2022-09-02T23:04:06.289Z,41.96
2022-09-02T23:06:33.329Z,43.10
2022-09-02T23:09:10.506Z,41.94
2022-09-02T23:11:58.183Z,42.44
2022-09-02T23:14:44.498Z,42.08
2022-09-02T23:17:23.567Z,42.16
2022-09-02T23:20:19.966Z,43.14
2022-09-02T23:23:03.313Z,42.31
2022-09-02T23:25:56.864Z,43.15
2022-09-02T23:28:41.813Z,42.18
2022-09-02T23:31:25.919Z,43.13
2022-09-02T23:34:17.986Z,43.58
2022-09-02T23:36:58.505Z,42.32
2022-09-02T23:40:08.719Z,43.01
2022-09-02T23:42:35.198Z,42.41
2022-09-02T23:45:21.696Z,42.58
2022-09-02T23:48:26.489Z,42.73
2022-09-02T23:51:29.674Z,43.03
2022-09-02T23:54:14.780Z,43.47
2022-09-02T23:57:06.510Z,42.75
2022-09-02T23:59:42.409Z,43.19
